Bruner, MO (65620)

4:54 PM CDT on September 18, 2014 (GMT -0500)
Rogersville | Change Station
CLOSE
Current Station
Personal Weather Station
Location: Rogersville, MO
Elevation: 1453 ft
Nearby Weather Stations

Elev 1453 ft 37.09 °N, 93.10 °W | Updated 2 minutes ago

Overcast
Overcast
72.1 °F
Feels Like 73 °F
N
2.0
Wind Variable Wind from ESE
Gusts 4.0 mph

Today
High -- | Low -- °F
--% Chance of Precip.
Yesterday
High -- | Low -- °F
Precip. -- in
6:56 AM 7:14 PM
Waning Crescent, 24% visible
Pressure 29.96 in
Visibility 10.0 miles
Clouds Mostly Cloudy 2300 ft
Overcast 3800 ft
Heat Index 73 °F
Dew Point 64 °F
Humidity 76%
Rainfall 0.03 in
Snow Depth Not available.
UV 2 out of 12
Pollen 6.00 out of 12
Ozone Good
PM2.5 Good
Flu Activity Not available.
METAR KSGF 182052Z 16009KT 10SM BKN023 OVC038 22/17 A2999 RMK AO2 SLP146 T02170172 51001

More Conditions Fewer Conditions

Pressure 29.96 in
Visibility 10.0 miles
Clouds Mostly Cloudy 2300 ft
Overcast 3800 ft
Heat Index 73 °F
Dew Point 64 °F
Humidity 76%
Rainfall 0.03 in
Snow Depth Not available.
UV 2 out of 12
Pollen 6.00 out of 12
Ozone Good
PM2.5 Good
Flu Activity Not available.
METAR KSGF 182052Z 16009KT 10SM BKN023 OVC038 22/17 A2999 RMK AO2 SLP146 T02170172 51001

More Conditions Fewer Conditions

10-Day Weather Forecast

Almanac

Astronomy

Sep. 18, 2014 Rise Set
Actual Time 6:56 AM CDT 7:14 PM CDT
Civil Twilight 6:30 AM CDT 7:40 PM CDT
Nautical Twilight 5:59 AM CDT 8:11 PM CDT
Astronomical Twilight 5:28 AM CDT 8:42 PM CDT
Moon 1:54 AM CDT 4:01 PM CDT
Length of Visible Light 13h 10m
Length of Day
12h 18m
Tomorrow will be 2m 20s shorter.
Waning Crescent, 24% of the Moon is Illuminated
Today
Waning Crescent
Sep 24
New
Oct 1
First Quarter
Oct 8
Full
Oct 15
Last Quarter

Today's Extremes

State Highs State Lows

Community

WunderPhotos

Upload Photos

1,754,452 photos uploaded!

WunderBlogs® & News

Nearby

Air Quality

  Air Quality AQ Index Pollutant
Yesterday Good
PM10
Yesterday Good
OZONE
Current Good
OZONE
Current Good
PM2.5
Thursday Good
OZONE
Thursday Good
PM2.5
Friday Good
OZONE
Friday Good
PM2.5
Saturday Good
OZONE
Saturday Good
PM2.5
Sunday Good
OZONE
Sunday Good
PM2.5

Snow Depth

Station Depth Elevation
No new snow has been reported.

Earthquake Activity

City Distance Mag. Time & Date
No recent earthquake activity has been reported nearby.
Minimum magnitude displayed is 2.5.

Coastal Water Temperatures

Place Temperature
No Stations Reporting

Nearby Weather Stations